createdAt,value
2023-05-19T00:00:11.964Z,35.26
2023-05-19T00:00:42.030Z,35.26
2023-05-19T00:01:12.079Z,35.24
2023-05-19T00:01:42.124Z,35.29
2023-05-19T00:02:12.230Z,35.28
2023-05-19T00:02:42.489Z,35.23
2023-05-19T00:03:12.408Z,35.29
2023-05-19T00:03:42.368Z,35.24
2023-05-19T00:04:12.418Z,35.28
2023-05-19T00:04:42.497Z,35.28
2023-05-19T00:05:12.544Z,35.28
2023-05-19T00:05:42.615Z,35.24
2023-05-19T00:06:12.659Z,35.23
2023-05-19T00:06:42.694Z,35.24
2023-05-19T00:07:12.772Z,35.31
2023-05-19T00:07:42.807Z,35.33
2023-05-19T00:08:12.856Z,35.37
2023-05-19T00:08:42.885Z,35.31
2023-05-19T00:09:12.926Z,35.30
2023-05-19T00:09:42.962Z,35.34
2023-05-19T00:10:13.012Z,35.33
2023-05-19T00:10:43.064Z,35.30
2023-05-19T00:11:13.164Z,35.28
2023-05-19T00:11:43.144Z,35.27
2023-05-19T00:12:13.230Z,35.23
2023-05-19T00:12:43.333Z,35.26
2023-05-19T00:13:13.403Z,35.11
2023-05-19T00:13:43.483Z,35.17
2023-05-19T00:14:13.500Z,35.08
2023-05-19T00:14:43.575Z,35.02
2023-05-19T00:15:13.661Z,34.99
2023-05-19T00:15:43.752Z,35.06
2023-05-19T00:16:13.880Z,35.19
2023-05-19T00:16:43.839Z,35.15
2023-05-19T00:17:13.914Z,35.28
2023-05-19T00:17:44.056Z,35.11
2023-05-19T00:18:14.307Z,35.21
2023-05-19T00:18:44.119Z,35.22
2023-05-19T00:19:14.125Z,35.15
2023-05-19T00:19:44.206Z,35.19
2023-05-19T00:20:14.289Z,35.16
2023-05-19T00:20:44.398Z,35.19
2023-05-19T00:21:14.466Z,35.18
2023-05-19T00:21:44.550Z,35.10
2023-05-19T00:22:14.634Z,35.18
2023-05-19T00:22:44.759Z,35.14
2023-05-19T00:23:14.823Z,35.22
2023-05-19T00:23:44.900Z,35.15
2023-05-19T00:24:15.000Z,35.02
2023-05-19T00:24:45.081Z,35.07
2023-05-19T00:25:15.166Z,35.11
2023-05-19T00:25:45.265Z,35.12
2023-05-19T00:26:15.343Z,34.97
2023-05-19T00:26:45.412Z,35.03
2023-05-19T00:27:15.513Z,35.09
2023-05-19T00:27:45.593Z,35.11
2023-05-19T00:28:15.682Z,35.02
2023-05-19T00:28:45.804Z,34.96
2023-05-19T00:29:15.857Z,35.03
2023-05-19T00:29:45.952Z,34.99
2023-05-19T00:30:16.038Z,35.01
2023-05-19T00:30:46.122Z,35.02
2023-05-19T00:31:16.232Z,35.06
2023-05-19T00:31:46.311Z,35.04
2023-05-19T00:32:16.274Z,35.00
2023-05-19T00:32:46.287Z,35.06
2023-05-19T00:33:16.252Z,35.04
2023-05-19T00:33:46.344Z,35.03
2023-05-19T00:34:16.434Z,35.06
2023-05-19T00:34:46.512Z,35.03
2023-05-19T00:35:16.611Z,35.10
2023-05-19T00:35:46.688Z,35.05
2023-05-19T00:36:16.767Z,35.04
2023-05-19T00:36:46.866Z,35.05
2023-05-19T00:37:16.932Z,35.12
2023-05-19T00:37:47.067Z,35.05
2023-05-19T00:38:17.129Z,35.00
2023-05-19T00:38:47.205Z,35.07
2023-05-19T00:39:17.321Z,35.08
2023-05-19T00:39:47.390Z,35.08
2023-05-19T00:40:17.482Z,35.11
2023-05-19T00:40:47.561Z,35.07
2023-05-19T00:41:17.679Z,35.08
2023-05-19T00:41:47.745Z,35.08
2023-05-19T00:42:17.836Z,35.09
2023-05-19T00:42:47.941Z,35.08
2023-05-19T00:43:18.010Z,35.12
2023-05-19T00:43:48.117Z,35.09
2023-05-19T00:44:18.209Z,35.13
2023-05-19T00:44:48.294Z,35.08
2023-05-19T00:45:18.371Z,35.11
2023-05-19T00:45:48.463Z,35.12
2023-05-19T00:46:18.579Z,35.09
2023-05-19T00:46:48.594Z,35.16
2023-05-19T00:47:18.607Z,35.13
2023-05-19T00:47:48.765Z,35.14
2023-05-19T00:48:18.824Z,35.19
2023-05-19T00:48:48.911Z,35.16
2023-05-19T00:49:19.001Z,35.17
2023-05-19T00:49:49.073Z,35.17
2023-05-19T00:50:19.158Z,35.24
2023-05-19T00:50:49.247Z,35.17
2023-05-19T00:51:19.323Z,35.20
2023-05-19T00:51:49.418Z,35.18
2023-05-19T00:52:19.498Z,35.17
2023-05-19T00:52:49.595Z,35.25
2023-05-19T00:53:19.685Z,35.18
2023-05-19T00:53:49.769Z,35.19
2023-05-19T00:54:19.859Z,35.26
2023-05-19T00:54:49.944Z,35.29
2023-05-19T00:55:20.025Z,35.27
2023-05-19T00:55:50.118Z,35.28
2023-05-19T00:56:20.202Z,35.19
2023-05-19T00:56:50.302Z,35.21
2023-05-19T00:57:20.382Z,35.23
2023-05-19T00:57:50.486Z,35.23
2023-05-19T00:58:20.587Z,35.21
2023-05-19T00:58:50.677Z,35.17
2023-05-19T00:59:20.759Z,35.11
2023-05-19T00:59:50.837Z,35.10
2023-05-19T01:00:20.929Z,35.10
2023-05-19T01:00:51.019Z,35.08
2023-05-19T01:01:21.104Z,35.06
2023-05-19T01:01:51.142Z,35.02
2023-05-19T01:02:21.308Z,34.98
2023-05-19T01:02:51.319Z,34.95
2023-05-19T01:03:21.342Z,35.07
2023-05-19T01:03:51.491Z,35.03
2023-05-19T01:04:21.396Z,35.17
2023-05-19T01:04:51.450Z,35.07
2023-05-19T01:05:21.491Z,35.07
2023-05-19T01:05:51.538Z,35.17
2023-05-19T01:06:21.582Z,35.19
2023-05-19T01:06:51.648Z,35.08
2023-05-19T01:07:21.692Z,35.01
2023-05-19T01:07:51.739Z,35.20
2023-05-19T01:08:21.810Z,35.10
2023-05-19T01:08:51.839Z,35.14
2023-05-19T01:09:21.868Z,35.08
2023-05-19T01:09:51.906Z,35.07
2023-05-19T01:10:21.948Z,35.07
2023-05-19T01:10:52.028Z,35.11
2023-05-19T01:11:22.115Z,34.99
2023-05-19T01:11:52.213Z,35.07
2023-05-19T01:12:22.314Z,35.14
2023-05-19T01:12:52.404Z,35.01
2023-05-19T01:13:22.490Z,34.97
2023-05-19T01:13:52.582Z,35.03
2023-05-19T01:14:22.661Z,35.12
2023-05-19T01:14:52.750Z,35.11
2023-05-19T01:15:22.827Z,35.08
2023-05-19T01:15:52.922Z,35.03
2023-05-19T01:16:23.137Z,35.07
2023-05-19T01:16:53.159Z,35.01
2023-05-19T01:17:23.044Z,35.02
2023-05-19T01:17:53.180Z,34.96
2023-05-19T01:18:23.137Z,34.95
2023-05-19T01:18:53.240Z,34.95
2023-05-19T01:19:23.445Z,35.03
2023-05-19T01:19:53.422Z,35.01
2023-05-19T01:20:23.499Z,34.97
2023-05-19T01:20:53.594Z,34.99
2023-05-19T01:21:23.701Z,35.03
2023-05-19T01:21:53.779Z,35.01
2023-05-19T01:22:23.888Z,34.93
2023-05-19T01:22:53.954Z,35.06
2023-05-19T01:23:24.072Z,35.01
2023-05-19T01:23:54.076Z,35.03
2023-05-19T01:24:24.135Z,35.06
2023-05-19T01:24:54.214Z,35.00
2023-05-19T01:25:24.329Z,35.00
2023-05-19T01:25:54.403Z,35.07
2023-05-19T01:26:24.484Z,35.03
2023-05-19T01:26:54.572Z,35.04
2023-05-19T01:27:24.676Z,35.01
2023-05-19T01:27:54.754Z,35.01
2023-05-19T01:28:24.833Z,35.05
2023-05-19T01:28:54.917Z,35.09
2023-05-19T01:29:25.027Z,35.10
2023-05-19T01:29:55.180Z,35.08
2023-05-19T01:30:25.229Z,35.11
2023-05-19T01:30:55.224Z,35.08
2023-05-19T01:31:25.408Z,35.11
2023-05-19T01:31:55.428Z,35.08
2023-05-19T01:32:25.534Z,35.08
2023-05-19T01:32:55.640Z,35.06
2023-05-19T01:33:25.625Z,35.12
2023-05-19T01:33:55.710Z,35.12
2023-05-19T01:34:25.794Z,35.08
2023-05-19T01:34:55.893Z,35.13
2023-05-19T01:35:25.988Z,35.11
2023-05-19T01:35:56.088Z,35.10
2023-05-19T01:36:26.176Z,35.12
2023-05-19T01:36:56.263Z,35.10
2023-05-19T01:37:26.361Z,35.06
2023-05-19T01:37:56.439Z,35.16
2023-05-19T01:38:26.522Z,35.14
2023-05-19T01:38:56.622Z,35.19
2023-05-19T01:39:26.690Z,35.21
2023-05-19T01:39:56.788Z,35.16
2023-05-19T01:40:26.899Z,35.17
2023-05-19T01:40:56.941Z,35.15
2023-05-19T01:41:27.031Z,35.16
2023-05-19T01:41:57.111Z,35.13
2023-05-19T01:42:27.214Z,35.18
2023-05-19T01:42:57.831Z,35.13
2023-05-19T01:43:27.329Z,35.08
2023-05-19T01:43:57.415Z,35.11
2023-05-19T01:44:27.524Z,35.09
2023-05-19T01:44:57.601Z,35.08
2023-05-19T01:45:27.688Z,35.12
2023-05-19T01:45:57.799Z,35.04
2023-05-19T01:46:27.991Z,35.05
2023-05-19T01:46:57.900Z,35.05
2023-05-19T01:47:28.003Z,34.95
2023-05-19T01:47:58.286Z,34.90
2023-05-19T01:48:28.180Z,34.91
2023-05-19T01:48:58.285Z,34.95
2023-05-19T01:49:28.357Z,34.97
2023-05-19T01:49:58.465Z,34.99
2023-05-19T01:50:28.551Z,35.02
2023-05-19T01:50:58.630Z,35.07
2023-05-19T01:51:28.701Z,35.06
2023-05-19T01:51:58.781Z,35.12
2023-05-19T01:52:28.876Z,35.02
2023-05-19T01:52:58.961Z,35.07
2023-05-19T01:53:29.044Z,35.09
2023-05-19T01:53:59.283Z,35.08
2023-05-19T01:54:29.242Z,35.03
2023-05-19T01:54:59.324Z,34.99
2023-05-19T01:55:29.407Z,35.07
2023-05-19T01:55:59.490Z,35.04
2023-05-19T01:56:29.590Z,34.97
2023-05-19T01:56:59.680Z,35.07
2023-05-19T01:57:29.761Z,35.04
2023-05-19T01:57:59.846Z,35.17
2023-05-19T01:58:29.953Z,35.11
2023-05-19T01:58:59.946Z,35.08
2023-05-19T01:59:30.032Z,35.04
2023-05-19T02:00:00.119Z,35.00
2023-05-19T02:00:30.331Z,35.07
2023-05-19T02:01:00.201Z,35.03
2023-05-19T02:01:30.298Z,34.99
2023-05-19T02:02:00.230Z,35.02
2023-05-19T02:02:30.321Z,35.02
2023-05-19T02:03:00.289Z,34.95
2023-05-19T02:03:30.329Z,35.00
2023-05-19T02:04:00.394Z,34.99
2023-05-19T02:04:30.497Z,34.95
2023-05-19T02:05:00.466Z,34.92
2023-05-19T02:05:30.516Z,34.92
2023-05-19T02:06:00.547Z,34.87
2023-05-19T02:06:30.597Z,34.88
2023-05-19T02:07:00.632Z,34.94
2023-05-19T02:07:30.692Z,34.89
2023-05-19T02:08:00.740Z,34.92
2023-05-19T02:08:30.788Z,34.94
2023-05-19T02:09:00.829Z,34.98
2023-05-19T02:09:30.882Z,34.94
2023-05-19T02:10:00.896Z,34.97
2023-05-19T02:10:31.304Z,34.95
2023-05-19T02:11:00.982Z,34.91
2023-05-19T02:11:31.054Z,34.89
2023-05-19T02:12:01.153Z,34.99
2023-05-19T02:12:31.242Z,34.98
2023-05-19T02:13:01.322Z,35.00
2023-05-19T02:13:31.396Z,34.92
2023-05-19T02:14:01.485Z,34.96
2023-05-19T02:14:31.573Z,34.96
2023-05-19T02:15:01.666Z,34.95
2023-05-19T02:15:31.777Z,35.00
2023-05-19T02:16:01.960Z,34.96
2023-05-19T02:16:31.931Z,34.98
2023-05-19T02:17:02.023Z,35.04
2023-05-19T02:17:32.172Z,35.03
2023-05-19T02:18:02.208Z,34.99
2023-05-19T02:18:32.200Z,35.00
2023-05-19T02:19:02.339Z,34.99
2023-05-19T02:19:32.310Z,34.97
2023-05-19T02:20:02.384Z,35.03
2023-05-19T02:20:32.709Z,35.05
2023-05-19T02:21:02.528Z,35.04
2023-05-19T02:21:32.629Z,35.04
2023-05-19T02:22:02.718Z,35.01
2023-05-19T02:22:32.794Z,35.03
2023-05-19T02:23:02.873Z,35.05
2023-05-19T02:23:32.964Z,35.02
2023-05-19T02:24:03.041Z,35.02
2023-05-19T02:24:33.376Z,35.07
2023-05-19T02:25:03.244Z,35.08
2023-05-19T02:26:03.311Z,35.04
2023-05-19T02:26:33.330Z,35.06
2023-05-19T02:27:03.327Z,35.08
2023-05-19T02:27:33.281Z,35.11
2023-05-19T02:28:03.388Z,35.12
2023-05-19T02:28:33.451Z,35.08
2023-05-19T02:29:03.534Z,35.08
2023-05-19T02:29:33.626Z,35.08
2023-05-19T02:30:03.715Z,35.06
2023-05-19T02:30:34.010Z,35.10
2023-05-19T02:31:03.909Z,35.08
2023-05-19T02:31:34.039Z,35.07
2023-05-19T02:32:04.150Z,35.02
2023-05-19T02:32:34.142Z,35.02
2023-05-19T02:33:34.149Z,34.98
2023-05-19T02:34:04.247Z,34.95
2023-05-19T02:34:34.333Z,34.89
2023-05-19T02:35:04.421Z,34.89
2023-05-19T02:35:34.530Z,34.87
2023-05-19T02:36:04.506Z,35.01
2023-05-19T02:36:34.593Z,34.92
2023-05-19T02:37:04.687Z,35.01
2023-05-19T02:37:34.751Z,35.07
2023-05-19T02:38:04.846Z,34.99
2023-05-19T02:38:34.926Z,34.99
2023-05-19T02:39:05.004Z,35.05
2023-05-19T02:39:35.143Z,35.06
2023-05-19T02:40:05.140Z,35.07
2023-05-19T02:40:35.223Z,35.02
2023-05-19T02:41:05.314Z,34.96
2023-05-19T02:41:35.420Z,35.04
2023-05-19T02:42:05.483Z,34.99
2023-05-19T02:42:35.582Z,35.01
2023-05-19T02:43:05.656Z,35.04
2023-05-19T02:43:35.762Z,35.02
2023-05-19T02:44:05.846Z,35.04
2023-05-19T02:44:35.932Z,35.06
2023-05-19T02:45:06.028Z,35.06
2023-05-19T02:45:36.110Z,34.99
2023-05-19T02:46:06.256Z,34.99
2023-05-19T02:46:36.282Z,34.99
2023-05-19T02:47:06.285Z,34.98
2023-05-19T02:47:37.192Z,34.97
2023-05-19T02:48:06.483Z,34.94
2023-05-19T02:48:36.460Z,34.94
2023-05-19T02:49:06.537Z,34.91
2023-05-19T02:49:36.658Z,34.93
2023-05-19T02:50:06.628Z,34.95
2023-05-19T02:50:36.712Z,34.94
2023-05-19T02:51:06.796Z,34.92
2023-05-19T02:51:36.873Z,34.97
2023-05-19T02:52:06.975Z,34.90
2023-05-19T02:52:37.060Z,34.96
2023-05-19T02:53:07.152Z,34.88
2023-05-19T02:53:37.212Z,34.94
2023-05-19T02:54:07.345Z,34.88
2023-05-19T02:54:37.301Z,34.90
2023-05-19T02:55:07.407Z,34.91
2023-05-19T02:55:37.420Z,34.86
2023-05-19T02:56:07.525Z,34.79
2023-05-19T02:56:37.611Z,34.88
2023-05-19T02:57:07.697Z,34.91
2023-05-19T02:57:37.792Z,34.83
2023-05-19T02:58:07.906Z,34.87
2023-05-19T02:58:37.895Z,34.88
2023-05-19T02:59:07.987Z,34.86
2023-05-19T02:59:38.084Z,34.96
2023-05-19T03:00:08.162Z,34.97
2023-05-19T03:00:38.264Z,35.06
2023-05-19T03:01:08.286Z,34.97
2023-05-19T03:01:38.336Z,35.10
2023-05-19T03:02:08.594Z,35.06
2023-05-19T03:02:38.551Z,35.11
2023-05-19T03:03:08.588Z,35.13
2023-05-19T03:03:38.632Z,35.05
2023-05-19T03:04:08.706Z,35.08
2023-05-19T03:04:38.649Z,35.08
2023-05-19T03:05:08.703Z,35.05
2023-05-19T03:05:38.735Z,35.01
2023-05-19T03:06:08.825Z,35.03
2023-05-19T03:06:38.865Z,35.01
2023-05-19T03:07:08.900Z,35.05
2023-05-19T03:07:38.947Z,35.06
2023-05-19T03:08:08.984Z,34.97
2023-05-19T03:08:41.528Z,34.98
2023-05-19T03:09:09.091Z,35.00
2023-05-19T03:09:39.141Z,35.01
2023-05-19T03:10:09.163Z,35.01
2023-05-19T03:10:39.256Z,34.94
2023-05-19T03:11:09.330Z,34.95
2023-05-19T03:11:39.421Z,34.98
2023-05-19T03:12:09.508Z,34.97
2023-05-19T03:12:39.598Z,34.95
2023-05-19T03:13:09.707Z,34.97
2023-05-19T03:13:39.791Z,34.96
2023-05-19T03:14:09.868Z,34.92
2023-05-19T03:14:39.968Z,34.93
2023-05-19T03:15:10.058Z,34.93
2023-05-19T03:15:40.152Z,34.95
2023-05-19T03:16:10.242Z,34.92
2023-05-19T03:16:40.424Z,34.95
2023-05-19T03:17:10.431Z,34.93
2023-05-19T03:17:40.389Z,34.91
2023-05-19T03:18:10.464Z,34.90
2023-05-19T03:18:40.442Z,34.88
2023-05-19T03:19:10.559Z,34.86
2023-05-19T03:19:40.569Z,34.94
2023-05-19T03:20:10.652Z,34.88
2023-05-19T03:20:41.767Z,34.85
2023-05-19T03:21:10.815Z,34.89
2023-05-19T03:21:40.909Z,34.89
2023-05-19T03:22:11.007Z,34.89
2023-05-19T03:22:41.094Z,34.90
2023-05-19T03:23:11.193Z,34.92
2023-05-19T03:23:41.267Z,34.90
2023-05-19T03:24:11.359Z,34.87
2023-05-19T03:24:41.440Z,34.87
2023-05-19T03:25:11.530Z,34.93
2023-05-19T03:25:41.627Z,34.96
2023-05-19T03:26:11.740Z,34.93
2023-05-19T03:26:41.813Z,34.93
2023-05-19T03:27:11.902Z,34.93
2023-05-19T03:27:42.017Z,35.01
2023-05-19T03:28:12.084Z,35.00
2023-05-19T03:28:42.160Z,34.94
2023-05-19T03:29:12.249Z,34.96
2023-05-19T03:29:42.359Z,34.95
2023-05-19T03:30:12.413Z,34.98
2023-05-19T03:30:42.485Z,34.91
2023-05-19T03:31:12.585Z,34.95
2023-05-19T03:31:42.713Z,34.97
2023-05-19T03:32:12.754Z,34.98
2023-05-19T03:32:42.834Z,34.98
2023-05-19T03:33:13.012Z,34.91
2023-05-19T03:33:42.898Z,34.94
2023-05-19T03:34:12.899Z,34.89
2023-05-19T03:34:42.973Z,34.89
2023-05-19T03:35:13.063Z,34.91
2023-05-19T03:35:43.167Z,34.87
2023-05-19T03:36:13.457Z,34.87
2023-05-19T03:36:43.290Z,34.84
2023-05-19T03:37:13.370Z,34.86
2023-05-19T03:37:43.465Z,34.87
2023-05-19T03:38:13.549Z,34.87
2023-05-19T03:38:43.626Z,34.92
2023-05-19T03:39:13.708Z,34.88
2023-05-19T03:39:43.807Z,34.82
2023-05-19T03:40:13.880Z,34.91
2023-05-19T03:40:43.996Z,34.87
2023-05-19T03:41:14.092Z,34.88
2023-05-19T03:41:44.143Z,34.86
2023-05-19T03:42:14.241Z,34.88
2023-05-19T03:42:44.349Z,34.97
2023-05-19T03:43:14.426Z,35.01
2023-05-19T03:43:44.528Z,34.98
2023-05-19T03:44:14.594Z,35.06
2023-05-19T03:44:44.689Z,34.99
2023-05-19T03:45:14.785Z,35.06
2023-05-19T03:45:44.895Z,35.13
2023-05-19T03:46:15.043Z,35.03
2023-05-19T03:46:45.019Z,35.03
2023-05-19T03:47:15.111Z,35.06
2023-05-19T03:47:45.240Z,35.09
2023-05-19T03:48:15.211Z,35.10
2023-05-19T03:48:45.291Z,35.09
2023-05-19T03:49:15.370Z,35.10
2023-05-19T03:49:45.471Z,35.08
2023-05-19T03:50:15.458Z,35.06
2023-05-19T03:50:45.543Z,35.03
2023-05-19T03:51:15.615Z,35.08
2023-05-19T03:51:45.705Z,35.04
2023-05-19T03:52:15.804Z,34.94
2023-05-19T03:52:45.881Z,34.95
2023-05-19T03:53:15.961Z,34.99
2023-05-19T03:53:46.053Z,34.97
2023-05-19T03:54:16.115Z,34.90
2023-05-19T03:54:46.212Z,34.93
2023-05-19T03:55:16.306Z,34.88
2023-05-19T03:55:46.366Z,34.89
2023-05-19T03:56:16.469Z,34.90
2023-05-19T03:56:46.540Z,34.86
2023-05-19T03:57:16.620Z,34.89
2023-05-19T03:57:46.701Z,34.88
2023-05-19T03:58:16.800Z,34.92
2023-05-19T03:58:46.892Z,34.89
2023-05-19T03:59:16.976Z,34.93
2023-05-19T03:59:47.051Z,34.88
2023-05-19T04:00:17.146Z,34.89
2023-05-19T04:00:47.195Z,34.86
2023-05-19T04:01:17.229Z,34.86
2023-05-19T04:01:47.280Z,34.81
2023-05-19T04:02:17.350Z,34.82
2023-05-19T04:02:47.479Z,34.75
2023-05-19T04:03:17.494Z,34.81
2023-05-19T04:03:47.553Z,34.83
2023-05-19T04:04:17.583Z,34.87
2023-05-19T04:04:47.665Z,34.86
2023-05-19T04:05:17.579Z,34.87
2023-05-19T04:05:47.617Z,34.89
2023-05-19T04:06:17.668Z,34.86
2023-05-19T04:06:47.711Z,34.82
2023-05-19T04:07:17.760Z,34.86
2023-05-19T04:07:47.801Z,34.88
2023-05-19T04:08:17.865Z,34.89
2023-05-19T04:08:47.917Z,34.86
2023-05-19T04:09:17.956Z,34.89
2023-05-19T04:09:48.009Z,34.82
2023-05-19T04:10:18.045Z,34.84
2023-05-19T04:10:48.115Z,34.86
2023-05-19T04:11:18.206Z,34.86
2023-05-19T04:11:48.327Z,34.87
2023-05-19T04:12:18.403Z,34.83
2023-05-19T04:12:48.474Z,34.79
2023-05-19T04:13:18.570Z,34.85
2023-05-19T04:13:48.692Z,34.77
2023-05-19T04:14:18.753Z,34.83
2023-05-19T04:14:48.836Z,34.89
2023-05-19T04:15:18.937Z,34.84
2023-05-19T04:15:49.057Z,34.85
2023-05-19T04:16:19.078Z,34.86
2023-05-19T04:16:49.100Z,34.86
2023-05-19T04:17:19.204Z,34.89
2023-05-19T04:17:49.350Z,34.83
2023-05-19T04:18:19.325Z,34.90
2023-05-19T04:18:49.491Z,34.87
2023-05-19T04:19:19.552Z,34.87
2023-05-19T04:19:49.553Z,34.82
2023-05-19T04:20:19.637Z,34.79
2023-05-19T04:20:49.724Z,34.82
2023-05-19T04:21:19.809Z,34.87
2023-05-19T04:21:49.891Z,34.85
2023-05-19T04:22:19.980Z,34.80
2023-05-19T04:22:50.066Z,34.83
2023-05-19T04:23:20.155Z,34.82
2023-05-19T04:23:50.256Z,34.82
2023-05-19T04:24:20.321Z,34.86
2023-05-19T04:24:50.400Z,34.80
2023-05-19T04:25:20.503Z,34.85
2023-05-19T04:25:50.586Z,34.89
2023-05-19T04:26:20.661Z,34.86
2023-05-19T04:26:50.775Z,34.87
2023-05-19T04:27:20.842Z,34.81
2023-05-19T04:27:50.958Z,34.79
2023-05-19T04:28:21.006Z,34.80
2023-05-19T04:28:51.089Z,34.77
2023-05-19T04:29:21.183Z,34.74
2023-05-19T04:29:51.264Z,34.70
2023-05-19T04:30:21.355Z,34.74
2023-05-19T04:30:51.464Z,34.70
2023-05-19T04:31:21.523Z,34.74
2023-05-19T04:31:51.560Z,34.78
2023-05-19T04:32:21.640Z,34.85
2023-05-19T04:32:51.765Z,34.87
2023-05-19T04:33:21.766Z,34.83
2023-05-19T04:33:51.853Z,34.95
2023-05-19T04:34:21.858Z,34.91
2023-05-19T04:34:51.944Z,35.01
2023-05-19T04:35:22.020Z,34.96
2023-05-19T04:35:52.100Z,34.96
2023-05-19T04:36:22.203Z,34.97
2023-05-19T04:36:53.517Z,34.95
2023-05-19T04:37:22.347Z,35.04
2023-05-19T04:37:52.414Z,34.97
2023-05-19T04:38:22.492Z,35.02
2023-05-19T04:38:52.569Z,35.03
2023-05-19T04:39:22.680Z,34.97
2023-05-19T04:39:52.740Z,34.94
2023-05-19T04:40:22.857Z,34.95
2023-05-19T04:40:52.948Z,34.95
2023-05-19T04:41:23.049Z,34.93
2023-05-19T04:41:53.134Z,34.91
2023-05-19T04:42:23.236Z,34.90
2023-05-19T04:42:53.285Z,34.93
2023-05-19T04:43:23.400Z,34.91
2023-05-19T04:43:53.461Z,34.90
2023-05-19T04:44:23.535Z,34.97
2023-05-19T04:44:53.627Z,34.94
2023-05-19T04:45:23.724Z,34.87
2023-05-19T04:45:53.920Z,34.85
2023-05-19T04:46:24.006Z,34.90
2023-05-19T04:46:54.109Z,34.90
2023-05-19T04:47:24.061Z,34.85
2023-05-19T04:47:54.070Z,34.88
2023-05-19T04:48:24.035Z,34.86
2023-05-19T04:48:54.132Z,34.90
2023-05-19T04:49:24.236Z,34.87
2023-05-19T04:49:54.316Z,34.86
2023-05-19T04:50:24.424Z,34.84
2023-05-19T04:50:54.492Z,34.81
2023-05-19T04:51:24.584Z,34.83
2023-05-19T04:51:55.827Z,34.86
2023-05-19T04:52:24.790Z,34.82
2023-05-19T04:52:54.852Z,34.77
2023-05-19T04:53:24.943Z,34.80
2023-05-19T04:53:55.039Z,34.79
2023-05-19T04:54:25.108Z,34.74
2023-05-19T04:54:55.198Z,34.73
2023-05-19T04:55:25.286Z,34.76
2023-05-19T04:55:55.381Z,34.76
2023-05-19T04:56:25.464Z,34.69
2023-05-19T04:56:55.541Z,34.69
2023-05-19T04:57:25.671Z,34.66
2023-05-19T04:57:55.739Z,34.67
2023-05-19T04:58:25.825Z,34.66
2023-05-19T04:58:55.909Z,34.66
2023-05-19T04:59:25.993Z,34.64
2023-05-19T04:59:56.091Z,34.67
2023-05-19T05:00:26.171Z,34.62
2023-05-19T05:00:57.073Z,34.68
2023-05-19T05:01:26.573Z,34.63
2023-05-19T05:02:26.420Z,34.68
2023-05-19T05:02:56.479Z,34.61
2023-05-19T05:03:26.744Z,34.61
2023-05-19T05:03:56.509Z,34.64
2023-05-19T05:04:26.557Z,34.64
2023-05-19T05:04:56.574Z,34.60
2023-05-19T05:05:26.623Z,34.61
2023-05-19T05:05:56.686Z,34.59
2023-05-19T05:06:26.707Z,34.56
2023-05-19T05:06:56.762Z,34.59
2023-05-19T05:07:26.798Z,34.64
2023-05-19T05:07:56.840Z,34.63
2023-05-19T05:08:26.897Z,34.61
2023-05-19T05:08:56.963Z,34.55
2023-05-19T05:09:27.010Z,34.55
2023-05-19T05:09:57.036Z,34.55
2023-05-19T05:10:27.090Z,34.59
2023-05-19T05:10:57.166Z,34.54
2023-05-19T05:11:27.226Z,34.48
2023-05-19T05:11:57.313Z,34.48
2023-05-19T05:12:27.431Z,34.52
2023-05-19T05:12:57.483Z,34.51
2023-05-19T05:13:27.585Z,34.53
2023-05-19T05:13:57.687Z,34.49
2023-05-19T05:14:27.782Z,34.50
2023-05-19T05:14:57.862Z,34.49
2023-05-19T05:15:27.943Z,34.56
2023-05-19T05:15:58.063Z,34.49
2023-05-19T05:16:28.219Z,34.48
2023-05-19T05:16:58.169Z,34.52
2023-05-19T05:17:28.278Z,34.52
2023-05-19T05:17:58.405Z,34.53
2023-05-19T05:18:28.309Z,34.58
2023-05-19T05:18:58.471Z,34.54
2023-05-19T05:19:28.625Z,34.44
2023-05-19T05:19:58.570Z,34.47
2023-05-19T05:20:28.654Z,34.48
2023-05-19T05:20:58.733Z,34.52
2023-05-19T05:21:28.812Z,34.41
2023-05-19T05:21:58.909Z,34.45
2023-05-19T05:22:29.005Z,34.39
2023-05-19T05:22:59.092Z,34.51
2023-05-19T05:23:29.177Z,34.43
2023-05-19T05:23:59.266Z,34.50
2023-05-19T05:24:29.347Z,34.48
2023-05-19T05:24:59.425Z,34.54
2023-05-19T05:25:29.549Z,34.47
2023-05-19T05:25:59.512Z,34.45
2023-05-19T05:26:29.607Z,34.47
2023-05-19T05:26:59.665Z,34.40
2023-05-19T05:27:29.816Z,34.39
2023-05-19T05:27:59.774Z,34.39
2023-05-19T05:28:29.877Z,34.38
2023-05-19T05:28:59.946Z,34.34
2023-05-19T05:29:30.036Z,34.42
2023-05-19T05:30:00.147Z,34.35
2023-05-19T05:30:30.216Z,34.36
2023-05-19T05:31:00.291Z,34.34
2023-05-19T05:31:30.379Z,34.28
2023-05-19T05:32:00.487Z,34.28
2023-05-19T05:32:30.692Z,34.32
2023-05-19T05:33:00.699Z,34.31
2023-05-19T05:33:30.797Z,34.32
2023-05-19T05:34:00.779Z,34.28
2023-05-19T05:34:30.863Z,34.30
2023-05-19T05:35:00.955Z,34.24
2023-05-19T05:35:31.159Z,34.26
2023-05-19T05:36:01.054Z,34.27
2023-05-19T05:36:31.153Z,34.30
2023-05-19T05:37:01.237Z,34.23
2023-05-19T05:37:31.326Z,34.25
2023-05-19T05:38:01.429Z,34.17
2023-05-19T05:38:31.517Z,34.18
2023-05-19T05:39:01.597Z,34.17
2023-05-19T05:39:31.686Z,34.20
2023-05-19T05:40:01.764Z,34.09
2023-05-19T05:40:31.863Z,34.09
2023-05-19T05:41:01.961Z,34.10
2023-05-19T05:41:32.060Z,34.10
2023-05-19T05:42:02.152Z,34.09
2023-05-19T05:42:32.269Z,34.16
2023-05-19T05:43:02.329Z,34.15
2023-05-19T05:43:32.406Z,34.06
2023-05-19T05:44:02.486Z,34.02
2023-05-19T05:44:32.593Z,34.05
2023-05-19T05:45:02.684Z,34.05
2023-05-19T05:45:33.004Z,34.07
2023-05-19T05:46:02.863Z,34.00
2023-05-19T05:46:32.975Z,33.95
2023-05-19T05:47:02.912Z,33.95
2023-05-19T05:47:33.048Z,33.92
2023-05-19T05:48:03.067Z,33.91
2023-05-19T05:48:33.127Z,33.89
2023-05-19T05:49:03.216Z,33.87
2023-05-19T05:49:33.297Z,33.82
2023-05-19T05:50:03.380Z,33.85
2023-05-19T05:50:33.390Z,33.82
2023-05-19T05:51:03.477Z,33.79
2023-05-19T05:51:33.560Z,33.81
2023-05-19T05:52:06.217Z,33.80
2023-05-19T05:52:33.753Z,33.77
2023-05-19T05:53:03.840Z,33.70
2023-05-19T05:53:33.925Z,33.67
2023-05-19T05:54:04.025Z,33.64
2023-05-19T05:54:34.111Z,33.65
2023-05-19T05:55:04.187Z,33.58
2023-05-19T05:55:34.566Z,33.64
2023-05-19T05:56:04.295Z,33.61
2023-05-19T05:56:34.381Z,33.65
2023-05-19T05:57:04.453Z,33.65
2023-05-19T05:57:34.580Z,33.65
2023-05-19T05:58:04.641Z,33.68
2023-05-19T05:58:36.293Z,33.64
2023-05-19T05:59:04.740Z,33.61
2023-05-19T05:59:34.841Z,33.61
2023-05-19T06:00:05.187Z,33.58
2023-05-19T06:00:35.401Z,33.61
2023-05-19T06:01:35.711Z,33.67
2023-05-19T06:02:05.173Z,33.67
2023-05-19T06:02:35.170Z,33.56
2023-05-19T06:03:05.252Z,33.61
2023-05-19T06:03:35.217Z,33.58
2023-05-19T06:04:05.217Z,33.63
2023-05-19T06:04:35.262Z,33.69
2023-05-19T06:05:05.381Z,33.67
2023-05-19T06:05:35.386Z,33.66
2023-05-19T06:06:05.650Z,33.66
2023-05-19T06:06:35.492Z,33.67
2023-05-19T06:07:05.526Z,33.65
2023-05-19T06:07:35.560Z,33.65
2023-05-19T06:08:05.610Z,33.60
2023-05-19T06:08:35.656Z,33.63
2023-05-19T06:09:05.836Z,33.66
2023-05-19T06:09:35.763Z,33.65
2023-05-19T06:10:36.222Z,33.56
2023-05-19T06:11:05.943Z,33.62
2023-05-19T06:11:36.025Z,33.55
2023-05-19T06:12:06.128Z,33.57
2023-05-19T06:12:36.191Z,33.54
2023-05-19T06:13:06.325Z,33.53
2023-05-19T06:13:36.291Z,33.58
2023-05-19T06:14:06.473Z,33.55
2023-05-19T06:14:36.459Z,33.44
2023-05-19T06:15:06.556Z,33.52
2023-05-19T06:15:36.663Z,33.44
2023-05-19T06:16:06.748Z,33.45
2023-05-19T06:16:36.815Z,33.43
2023-05-19T06:17:06.814Z,33.42
2023-05-19T06:17:36.903Z,33.36
2023-05-19T06:18:07.017Z,33.39
2023-05-19T06:18:37.084Z,33.28
2023-05-19T06:19:07.108Z,33.30
2023-05-19T06:19:37.098Z,33.29
2023-05-19T06:20:07.180Z,33.29
2023-05-19T06:20:37.310Z,33.30
2023-05-19T06:21:07.391Z,33.25
2023-05-19T06:21:37.473Z,33.22
2023-05-19T06:22:07.560Z,33.17
2023-05-19T06:22:37.647Z,33.13
2023-05-19T06:23:07.753Z,33.10
2023-05-19T06:23:37.847Z,33.10
2023-05-19T06:24:07.938Z,33.08
2023-05-19T06:24:39.573Z,33.07
2023-05-19T06:25:08.025Z,33.08
2023-05-19T06:25:38.125Z,33.12
2023-05-19T06:26:08.107Z,33.07
2023-05-19T06:26:38.195Z,33.06
2023-05-19T06:27:08.280Z,33.08
2023-05-19T06:27:38.415Z,33.08
2023-05-19T06:28:08.422Z,33.10
2023-05-19T06:28:38.485Z,33.03
2023-05-19T06:29:08.575Z,33.02
2023-05-19T06:29:38.660Z,33.02